Latest Weather Observations for Tuggeranong

IDN60801

Issued at 6:05 pm EST Saturday 30 August 2014 (issued every 30 minutes, with the page automatically refreshed every 10 minutes)

About weather observations | Map of weather stations | Latest weather observations for NSW | Other Formats
Station Details ID: 070339 Name: TUGGERANONG (ISABELLA PLAINS) AWS Lat: -35.42 Lon: 149.09 Height: 586.7 m
Data from the previous 72 hours. | See also: Recent months at Tuggeranong
Date/Time
EST
Temp
°C
App
Temp
°C
Dew
Point
Rel
Hum
%
Delta-T
°C
Wind Press
QNH
hPa
Press
MSL
hPa
Rain
since 9 am
mm
Dir
 
Spd
km/h
Gust
km/h
Spd
kts
Gust
kts
30/06:00pm 13.1 10.8 5.0 58 3.9 ESE 6 7 3 4 1022.7 1023.5 0.0
30/05:30pm 13.9 11.4 4.8 54 4.3 E 7 11 4 6 1022.5 - 0.0
30/05:00pm 15.2 12.3 4.6 49 5.1 NE 9 15 5 8 1022.4 1023.2 0.0
30/04:30pm 16.0 12.5 3.4 43 6.0 ENE 11 17 6 9 1022.2 - 0.0
30/04:00pm 16.6 12.9 2.2 38 6.7 ENE 11 17 6 9 1022.2 1023.0 0.0
30/03:30pm 17.4 15.1 2.6 37 7.0 NNW 4 7 2 4 1022.3 - 0.0
30/03:00pm 16.7 13.4 2.3 38 6.7 SSE 9 15 5 8 1022.5 1023.3 0.0
30/02:30pm 16.7 13.5 3.0 40 6.5 SE 9 17 5 9 1022.9 - 0.0
30/02:00pm 16.1 13.0 3.5 43 6.0 ESE 9 17 5 9 1023.4 1024.2 0.0
30/01:30pm 16.2 12.7 5.5 49 5.3 SE 13 19 7 10 1023.7 - 0.0
30/01:00pm 15.4 11.7 4.2 47 5.3 ESE 13 20 7 11 1024.1 1024.9 0.0
30/12:30pm 15.2 11.2 4.9 50 5.0 SE 15 20 8 11 1024.6 - 0.0
30/12:00pm 14.3 9.8 4.0 50 4.8 SSW 17 24 9 13 1025.1 1025.9 0.0
30/11:30am 14.0 9.4 3.8 50 4.8 S 17 24 9 13 1025.6 - 0.0
30/11:00am 13.7 8.8 4.0 52 4.5 S 19 28 10 15 1026.0 1026.8 0.0
30/10:30am 12.5 6.9 3.5 54 4.2 S 22 32 12 17 1026.2 - 0.0
30/10:00am 11.4 5.8 3.2 57 3.7 S 22 33 12 18 1026.4 1027.3 0.0
30/09:30am 10.9 6.2 3.2 59 3.5 S 17 30 9 16 1026.6 - 0.0
30/09:00am 9.7 5.3 2.6 61 3.1 S 15 24 8 13 1026.8 1027.6 0.0
30/08:30am 8.5 4.0 1.9 63 2.8 SSE 15 28 8 15 1027.1 - 0.0
30/08:00am 8.0 4.2 1.6 64 2.7 SE 11 24 6 13 1027.3 1028.1 0.0
30/07:30am 7.0 3.9 1.3 67 2.4 SE 7 19 4 10 1027.1 - 0.0
30/07:00am 6.1 2.2 1.2 71 2.0 SSE 11 20 6 11 1027.0 1027.8 0.0
30/06:30am 5.2 1.3 1.3 76 1.6 S 11 20 6 11 1027.0 - 0.0
30/06:00am 5.5 1.6 1.2 74 1.8 S 11 17 6 9 1026.7 1027.5 0.0
30/05:30am 5.6 0.6 1.5 75 1.7 S 17 26 9 14 1026.2 - 0.0
30/05:00am 6.3 1.3 1.6 72 1.9 S 17 28 9 15 1026.3 1027.2 0.0
30/04:30am 6.5 1.2 1.8 72 2.0 S 19 32 10 17 1026.3 - 0.0
30/04:00am 6.6 1.2 2.3 74 1.8 S 20 30 11 16 1026.2 1027.1 0.0
30/03:30am 6.8 1.1 2.7 75 1.8 SSE 22 39 12 21 1026.4 - 0.0
30/03:00am 7.0 1.8 2.7 74 1.8 SSE 19 33 10 18 1026.4 1027.3 0.0
30/02:30am 7.4 2.1 2.9 73 2.0 SE 20 33 11 18 1026.3 - 0.0
30/02:00am 7.4 3.0 2.9 73 1.9 SSE 15 24 8 13 1026.4 1027.3 0.0
30/01:30am 7.8 3.1 3.3 73 2.0 SE 17 28 9 15 1026.4 - 0.0
30/01:00am 7.9 3.3 3.6 74 1.9 ESE 17 26 9 14 1026.6 1027.4 0.0
30/12:30am 8.3 3.7 3.8 73 2.0 SE 17 22 9 12 1026.4 - 0.0
30/12:00am 9.2 4.1 4.0 70 2.3 SSE 20 33 11 18 1026.4 1027.3 0.0
 
Date/Time
EST
Temp
°C
App
Temp
°C
Dew
Point
Rel
Hum
%
Delta-T
°C
Wind Press
QNH
hPa
Press
MSL
hPa
Rain
since 9 am
mm
Dir
 
Spd
km/h
Gust
km/h
Spd
kts
Gust
kts
29/11:30pm 9.3 5.2 4.5 72 2.2 SE 15 28 8 15 1026.7 - 0.0
29/11:00pm 8.4 5.5 4.4 76 1.8 SE 9 15 5 8 1026.7 1027.5 0.0
29/10:30pm 7.0 5.6 3.6 79 1.5 CALM 0 0 0 0 1026.8 - 0.0
29/10:00pm 7.3 5.0 2.8 73 1.9 SSW 4 7 2 4 1026.8 1027.6 0.0
29/09:30pm 8.6 5.8 3.4 70 2.3 E 7 11 4 6 1026.9 - 0.0
29/09:00pm 9.4 6.6 3.2 65 2.7 E 7 11 4 6 1026.9 1027.7 0.0
29/08:30pm 11.6 7.4 3.6 58 3.7 S 15 24 8 13 1026.8 - 0.0
29/08:00pm 11.7 8.2 3.5 57 3.7 SSE 11 17 6 9 1026.4 1027.3 0.0
29/07:30pm 12.2 8.3 3.4 55 4.0 SSE 13 19 7 10 1026.3 - 0.0
29/07:00pm 13.0 8.3 3.1 51 4.5 SSE 17 24 9 13 1026.1 1027.0 0.0
29/06:30pm 13.5 9.2 3.3 50 4.7 SSE 15 24 8 13 1025.9 - 0.0
29/06:00pm 14.2 10.1 4.2 51 4.7 SE 15 24 8 13 1025.5 1026.3 0.0
29/05:30pm 14.6 10.6 3.1 46 5.3 SE 13 19 7 10 1025.1 - 0.0
29/05:00pm 15.4 11.0 2.6 42 5.9 SE 15 22 8 12 1024.9 1025.7 0.0
29/04:30pm 15.9 11.6 3.0 42 6.1 SSE 15 22 8 12 1024.9 - 0.0
29/04:00pm 16.4 12.0 2.8 40 6.3 SSE 15 24 8 13 1024.6 1025.5 0.0
29/03:30pm 16.5 11.6 1.8 37 6.8 SE 17 22 9 12 1024.5 - 0.0
29/03:00pm 16.7 12.1 1.6 36 6.9 SSE 15 28 8 15 1024.6 1025.5 0.0
29/02:30pm 16.9 10.8 -2.7 26 8.2 SSE 20 33 11 18 1024.9 - 0.0
29/02:00pm 16.5 11.2 -0.7 31 7.5 SSE 17 32 9 17 1025.1 1025.9 0.0
29/01:30pm 16.7 11.6 -1.9 28 7.9 SSE 15 24 8 13 1025.4 - 0.0
29/01:00pm 16.1 10.5 -0.2 33 7.1 S 19 26 10 14 1025.7 1026.5 0.0
29/12:30pm 15.5 10.1 -1.1 32 7.1 S 17 26 9 14 1026.1 - 0.0
29/12:00pm 14.6 9.6 1.2 40 5.9 S 17 28 9 15 1026.7 1027.5 0.0
29/11:30am 14.1 10.6 5.5 56 4.2 S 13 19 7 10 1027.3 - 0.0
29/11:00am 13.7 10.3 5.8 59 3.8 SSE 13 20 7 11 1027.7 1028.6 0.0
29/10:30am 11.8 8.9 6.3 69 2.7 WSW 11 15 6 8 1028.0 - 0.0
29/10:00am 10.2 7.9 5.6 73 2.2 SW 7 9 4 5 1028.4 1029.2 0.0
29/09:30am 8.9 6.4 4.9 76 1.8 SW 7 17 4 9 1028.6 - 0.0
29/09:00am 7.9 5.9 4.5 79 1.5 W 4 9 2 5 1028.9 1029.7 0.0
29/08:30am 6.4 4.3 4.1 85 1.0 S 4 7 2 4 1028.9 - 0.0
29/08:00am 5.6 4.4 4.7 94 0.4 CALM 0 0 0 0 1028.9 1029.7 0.0
29/07:30am 3.4 2.0 3.4 100 0.0 CALM 0 2 0 1 1028.8 - 0.0
29/07:00am 2.1 0.4 2.1 100 0.0 CALM 0 0 0 0 1028.5 1029.3 0.0
29/06:30am 0.8 -1.5 0.5 98 0.1 WSW 2 7 1 4 1028.0 - 0.0
29/06:00am 0.5 -1.5 -0.2 95 0.3 CALM 0 0 0 0 1027.8 1028.7 0.0
29/05:30am 0.7 -1.3 -0.2 94 0.3 CALM 0 0 0 0 1027.7 - 0.0
29/05:00am 1.2 -0.7 0.3 94 0.3 CALM 0 0 0 0 1027.5 1028.4 0.0
29/04:30am 1.9 -0.7 0.9 93 0.4 SSW 4 7 2 4 1027.6 - 0.0
29/04:00am 2.8 1.1 1.6 92 0.5 CALM 0 0 0 0 1027.6 1028.5 0.0
29/03:30am 3.2 0.3 1.6 89 0.6 WSW 6 6 3 3 1027.6 - 0.0
29/03:00am 4.3 1.6 2.5 88 0.7 WSW 6 7 3 4 1027.5 1028.4 0.0
29/02:30am 5.0 3.5 3.2 88 0.8 CALM 0 7 0 4 1027.6 - 0.0
29/02:00am 5.6 4.2 3.8 88 0.8 CALM 0 0 0 0 1027.9 1028.8 0.0
29/01:30am 5.6 3.5 3.9 89 0.7 W 4 6 2 3 1028.5 - 0.0
29/01:00am 5.4 3.0 4.1 91 0.6 W 6 7 3 4 1028.7 1029.5 0.0
29/12:30am 5.1 3.9 4.4 95 0.3 CALM 0 0 0 0 1028.8 - 0.0
29/12:00am 4.5 3.2 4.1 97 0.2 CALM 0 0 0 0 1028.9 1029.7 0.0
 
Date/Time
EST
Temp
°C
App
Temp
°C
Dew
Point
Rel
Hum
%
Delta-T
°C
Wind Press
QNH
hPa
Press
MSL
hPa
Rain
since 9 am
mm
Dir
 
Spd
km/h
Gust
km/h
Spd
kts
Gust
kts
28/11:30pm 4.0 2.5 3.1 94 0.4 CALM 0 0 0 0 1029.0 - 0.0
28/11:00pm 4.2 2.6 2.7 90 0.6 CALM 0 0 0 0 1029.0 1029.9 0.0
28/10:30pm 5.5 4.2 4.0 90 0.7 CALM 0 0 0 0 1029.1 - 0.0
28/10:00pm 6.1 4.9 4.4 89 0.8 CALM 0 0 0 0 1029.1 1030.0 0.0
28/09:30pm 6.5 4.2 4.7 88 0.8 SSW 6 7 3 4 1029.0 - 0.0
28/09:00pm 7.9 5.5 5.2 83 1.2 ENE 7 9 4 5 1028.8 1029.6 0.0
28/08:30pm 8.5 5.7 5.3 80 1.5 ENE 9 13 5 7 1028.6 - 0.0
28/08:00pm 9.5 6.1 5.7 77 1.8 E 13 17 7 9 1028.5 1029.3 0.0
28/07:30pm 9.9 6.8 5.7 75 2.0 NE 11 15 6 8 1028.4 - 0.0
28/07:00pm 10.5 8.2 5.5 71 2.4 NE 7 11 4 6 1028.0 1028.9 0.0
28/06:30pm 11.4 8.3 5.7 68 2.7 E 11 15 6 8 1027.9 - 0.0
28/06:00pm 12.2 9.1 5.6 64 3.2 ENE 11 17 6 9 1027.7 1028.6 0.0
28/05:30pm 12.9 10.5 5.1 59 3.7 ENE 7 11 4 6 1027.4 - 0.0
28/05:00pm 13.3 10.4 4.7 56 4.1 E 9 13 5 7 1027.1 1027.9 0.0
28/04:30pm 13.9 10.3 5.0 55 4.3 E 13 19 7 10 1026.9 - 0.0
28/04:00pm 14.2 10.5 4.5 52 4.6 E 13 17 7 9 1026.8 1027.6 0.0
28/03:30pm 14.4 11.5 4.7 52 4.7 ENE 9 15 5 8 1026.8 - 0.0
28/03:00pm 14.3 11.0 4.3 51 4.7 ENE 11 17 6 9 1026.9 1027.7 0.0
28/02:30pm 13.8 11.3 4.7 54 4.4 ESE 7 11 4 6 1027.1 - 0.0
28/02:00pm 13.5 10.2 4.6 55 4.2 ESE 11 17 6 9 1027.2 1028.0 0.0
28/01:30pm 13.6 10.7 4.5 54 4.3 ESE 9 15 5 8 1027.4 - 0.0
28/01:00pm 13.5 9.7 4.1 53 4.4 ESE 13 22 7 12 1027.6 1028.5 0.0
28/12:30pm 13.3 9.7 5.0 57 4.0 SSW 13 19 7 10 1027.8 - 0.0
28/12:00pm 12.9 9.1 4.1 55 4.1 SSW 13 20 7 11 1028.4 1029.2 0.0
28/11:30am 13.2 9.5 4.4 55 4.2 S 13 20 7 11 1028.8 - 0.0
28/11:00am 11.8 7.1 3.3 56 3.9 S 17 22 9 12 1029.3 1030.2 0.0
28/10:30am 11.7 7.2 4.0 59 3.6 S 17 24 9 13 1029.5 - 0.0
28/10:00am 11.0 6.8 4.0 62 3.2 S 15 20 8 11 1029.7 1030.6 0.0
28/09:30am 9.4 4.7 3.2 65 2.8 S 17 28 9 15 1029.6 - 0.0
28/09:00am 8.8 4.0 2.8 66 2.6 S 17 26 9 14 1029.6 1030.5 0.0
28/08:30am 7.8 3.0 2.7 70 2.2 S 17 24 9 13 1029.6 - 0.0
28/08:00am 6.8 2.9 3.4 79 1.5 S 13 20 7 11 1029.4 1030.3 0.0
28/07:30am 4.1 2.0 4.0 99 0.0 SSW 4 9 2 5 1029.1 - 0.0
28/07:00am 2.2 -0.6 2.1 99 0.0 W 6 9 3 5 1028.8 1029.6 0.0
28/06:30am 0.9 -1.3 0.8 99 0.0 NW 2 7 1 4 1028.8 - 0.0
28/06:00am 1.4 -1.5 1.3 99 0.0 NW 6 6 3 3 1028.4 1029.2 0.0
28/05:30am 1.5 -1.6 1.4 99 0.0 W 7 9 4 5 1028.0 - 0.0
28/05:00am 1.6 -1.3 1.5 99 0.0 NW 6 7 3 4 1027.9 1028.8 0.0
28/04:30am 1.9 -1.1 1.8 99 0.0 W 7 9 4 5 1027.9 - 0.0
28/04:00am 1.4 -1.5 1.3 99 0.0 WSW 6 7 3 4 1027.9 1028.8 0.0
28/03:30am 0.4 -2.7 0.3 99 0.0 W 6 9 3 5 1028.0 - 0.0
28/03:00am 0.9 -1.4 0.6 98 0.1 NNW 2 7 1 4 1028.2 1029.1 0.0
28/02:30am 0.9 -1.4 0.3 96 0.2 W 2 6 1 3 1028.2 - 0.0
28/02:00am 1.6 -1.3 1.2 97 0.2 NW 6 7 3 4 1028.2 1029.1 0.0
28/01:30am 1.5 -0.4 0.8 95 0.3 CALM 0 0 0 0 1028.5 - 0.0
28/01:00am 2.0 0.2 1.3 95 0.3 CALM 0 0 0 0 1028.6 1029.4 0.0
28/12:30am 2.2 0.4 1.3 94 0.4 CALM 0 0 0 0 1028.8 - 0.0
28/12:00am 2.8 1.1 1.8 93 0.4 CALM 0 0 0 0 1028.7 1029.5 0.0
 
Date/Time
EST
Temp
°C
App
Temp
°C
Dew
Point
Rel
Hum
%
Delta-T
°C
Wind Press
QNH
hPa
Press
MSL
hPa
Rain
since 9 am
mm
Dir
 
Spd
km/h
Gust
km/h
Spd
kts
Gust
kts
27/11:30pm 3.1 1.4 1.9 92 0.5 CALM 0 0 0 0 1028.7 - 0.0
27/11:00pm 3.4 1.4 2.4 93 0.4 WNW 2 9 1 5 1028.7 1029.5 0.0
27/10:30pm 3.4 1.7 1.8 89 0.7 CALM 0 0 0 0 1028.7 - 0.0
27/10:00pm 3.7 2.0 1.9 88 0.7 CALM 0 0 0 0 1028.6 1029.4 0.0
27/09:30pm 4.9 2.6 2.8 86 0.9 E 4 7 2 4 1028.4 - 0.0
27/09:00pm 5.6 3.0 3.1 84 1.1 NE 6 7 3 4 1028.2 1029.1 0.0
27/08:30pm 5.7 3.4 2.9 82 1.2 S 4 9 2 5 1028.5 - 0.0
27/08:00pm 6.1 3.4 2.7 79 1.4 ESE 6 11 3 6 1028.2 1029.1 0.0
27/07:30pm 7.2 5.0 3.3 76 1.7 ESE 4 7 2 4 1028.4 - 0.0
27/07:00pm 8.2 5.1 3.7 73 2.0 ENE 9 9 5 5 1027.9 1028.8 0.0
27/06:30pm 9.2 6.6 3.4 67 2.6 ESE 6 7 3 4 1027.7 - 0.0

Other Formats:

Comma delimited format used in spreadsheet applications
http://www.bom.gov.au/fwo/IDN60801/IDN60801.94925.axf

JavaScript Object Notation format (JSON) in row-major order
http://www.bom.gov.au/fwo/IDN60801/IDN60801.94925.json